createdAt,value
2022-08-20T00:00:22.735Z,11.02
2022-08-20T00:02:50.944Z,11.13
2022-08-20T00:05:20.560Z,11.60
2022-08-20T00:07:46.839Z,11.10
2022-08-20T00:10:13.171Z,11.65
2022-08-20T00:12:43.560Z,11.52
2022-08-20T00:15:10.302Z,11.13
2022-08-20T00:17:39.273Z,12.20
2022-08-20T00:20:07.942Z,12.48
2022-08-20T00:22:34.401Z,12.13
2022-08-20T00:25:00.984Z,11.98
2022-08-20T00:27:27.268Z,11.45
2022-08-20T00:29:53.528Z,11.77
2022-08-20T00:32:19.791Z,12.75
2022-08-20T00:34:46.227Z,12.93
2022-08-20T00:37:12.501Z,12.73
2022-08-20T00:39:38.817Z,12.35
2022-08-20T00:42:05.498Z,12.80
2022-08-20T00:44:31.944Z,12.70
2022-08-20T00:46:58.313Z,13.10
2022-08-20T00:49:27.824Z,13.40
2022-08-20T00:52:13.451Z,13.00
2022-08-20T00:54:39.679Z,12.85
2022-08-20T00:57:08.235Z,12.55
2022-08-20T00:59:35.332Z,12.73
2022-08-20T01:02:02.298Z,13.73
2022-08-20T01:04:33.687Z,12.40
2022-08-20T01:07:00.783Z,12.45
2022-08-20T01:09:33.504Z,13.30
2022-08-20T01:12:14.392Z,14.13
2022-08-20T01:14:47.656Z,13.40
2022-08-20T01:17:18.875Z,13.75
2022-08-20T01:19:48.486Z,13.27
2022-08-20T01:22:36.310Z,14.37
2022-08-20T01:25:07.699Z,14.20
2022-08-20T01:27:41.870Z,14.88
2022-08-20T01:30:21.271Z,14.20
2022-08-20T01:32:47.535Z,14.82
2022-08-20T01:35:18.195Z,15.48
2022-08-20T01:37:44.526Z,15.85
2022-08-20T01:40:13.858Z,17.42
2022-08-20T01:42:52.707Z,16.42
2022-08-20T01:45:27.957Z,17.52
2022-08-20T01:47:57.423Z,16.65
2022-08-20T01:50:25.935Z,17.13
2022-08-20T01:52:57.257Z,16.23
2022-08-20T01:55:23.891Z,16.23
2022-08-20T01:57:50.282Z,15.63
2022-08-20T02:00:19.733Z,15.02
2022-08-20T02:02:46.751Z,15.05
2022-08-20T02:05:13.039Z,14.57
2022-08-20T02:07:39.302Z,14.05
2022-08-20T02:10:06.982Z,15.90
2022-08-20T02:12:33.332Z,15.25
2022-08-20T02:15:00.453Z,12.88
2022-08-20T02:17:26.962Z,11.88
2022-08-20T02:19:55.371Z,11.38
2022-08-20T02:22:34.170Z,10.90
2022-08-20T02:25:01.049Z,11.70
2022-08-20T02:27:27.488Z,11.10
2022-08-20T02:29:53.911Z,11.80
2022-08-20T02:32:32.537Z,10.32
2022-08-20T02:35:02.870Z,11.57
2022-08-20T02:37:29.157Z,12.10
2022-08-20T02:39:55.428Z,12.13
2022-08-20T02:42:21.758Z,12.05
2022-08-20T02:44:48.028Z,12.07
2022-08-20T02:47:14.281Z,11.30
2022-08-20T02:49:40.572Z,11.90
2022-08-20T02:52:06.914Z,12.13
2022-08-20T02:54:33.198Z,10.88
2022-08-20T02:56:59.475Z,10.77
2022-08-20T02:59:25.731Z,10.13
2022-08-20T03:02:00.278Z,10.18
2022-08-20T03:04:27.885Z,10.07
2022-08-20T03:06:54.248Z,9.77
2022-08-20T03:09:20.553Z,10.27
2022-08-20T03:11:46.814Z,10.18
2022-08-20T03:14:13.074Z,10.52
2022-08-20T03:16:39.343Z,10.63
2022-08-20T03:19:05.618Z,10.95
2022-08-20T03:21:32.347Z,10.20
2022-08-20T03:23:58.631Z,10.43
2022-08-20T03:26:24.905Z,10.82
2022-08-20T03:28:51.152Z,10.32
2022-08-20T03:31:17.553Z,9.98
2022-08-20T03:33:53.219Z,10.10
2022-08-20T03:36:22.217Z,10.38
2022-08-20T03:38:56.084Z,10.48
2022-08-20T03:41:23.776Z,10.60
2022-08-20T03:43:50.052Z,10.40
2022-08-20T03:46:22.260Z,10.65
2022-08-20T03:48:49.631Z,10.43
2022-08-20T03:51:16.940Z,10.10
2022-08-20T03:53:43.213Z,10.38
2022-08-20T03:56:09.573Z,10.68
2022-08-20T03:58:36.509Z,10.55
2022-08-20T04:01:04.383Z,10.98
2022-08-20T04:03:30.716Z,10.13
2022-08-20T04:05:57.041Z,11.15
2022-08-20T04:08:26.182Z,10.68
2022-08-20T04:10:53.483Z,10.40
2022-08-20T04:13:21.025Z,10.77
2022-08-20T04:15:50.551Z,10.05
2022-08-20T04:18:23.852Z,9.85
2022-08-20T04:20:50.861Z,10.07
2022-08-20T04:23:17.154Z,10.40
2022-08-20T04:25:44.470Z,9.68
2022-08-20T04:28:14.183Z,9.48
2022-08-20T04:30:41.032Z,10.07
2022-08-20T04:33:13.854Z,9.60
2022-08-20T04:35:42.459Z,10.07
2022-08-20T04:38:11.351Z,9.88
2022-08-20T04:40:57.945Z,10.30
2022-08-20T04:43:26.174Z,9.80
2022-08-20T04:45:52.635Z,10.45
2022-08-20T04:48:20.057Z,9.23
2022-08-20T04:50:49.325Z,9.43
2022-08-20T04:53:19.833Z,9.07
2022-08-20T04:55:48.421Z,10.07
2022-08-20T04:58:19.853Z,9.20
2022-08-20T05:00:49.877Z,9.80
2022-08-20T05:03:17.044Z,9.65
2022-08-20T05:05:44.918Z,9.23
2022-08-20T05:08:19.649Z,9.60
2022-08-20T05:10:46.537Z,9.20
2022-08-20T05:13:12.802Z,8.90
2022-08-20T05:15:39.623Z,8.40
2022-08-20T05:18:07.788Z,8.40
2022-08-20T05:20:40.268Z,8.30
2022-08-20T05:23:08.036Z,9.00
2022-08-20T05:25:34.591Z,8.93
2022-08-20T05:28:02.638Z,8.38
2022-08-20T05:30:33.393Z,8.50
2022-08-20T05:33:00.736Z,8.52
2022-08-20T05:35:27.452Z,8.23
2022-08-20T05:37:54.767Z,8.27
2022-08-20T05:40:22.820Z,8.73
2022-08-20T05:42:49.579Z,8.70
2022-08-20T05:45:18.145Z,8.63
2022-08-20T05:47:44.588Z,8.32
2022-08-20T05:50:23.202Z,8.40
2022-08-20T05:52:49.795Z,8.07
2022-08-20T05:55:16.215Z,8.20
2022-08-20T05:57:42.546Z,8.50
2022-08-20T06:00:10.615Z,9.30
2022-08-20T06:02:55.723Z,8.70
2022-08-20T06:05:22.063Z,8.85
2022-08-20T06:07:50.541Z,10.00
2022-08-20T06:10:17.420Z,8.95
2022-08-20T06:12:46.863Z,8.93
2022-08-20T06:15:13.431Z,8.90
2022-08-20T06:17:39.761Z,8.90
2022-08-20T06:20:07.498Z,9.00
2022-08-20T06:22:34.087Z,8.30
2022-08-20T06:25:00.724Z,7.50
2022-08-20T06:27:27.952Z,6.60
2022-08-20T06:29:54.593Z,7.18
2022-08-20T06:32:28.797Z,6.00
2022-08-20T06:34:58.955Z,5.30
2022-08-20T06:37:31.457Z,4.88
2022-08-20T06:40:03.267Z,5.20
2022-08-20T06:42:29.768Z,4.55
2022-08-20T06:44:56.027Z,3.95
2022-08-20T06:47:22.329Z,3.60
2022-08-20T06:49:48.602Z,4.05
2022-08-20T06:52:16.976Z,3.92
2022-08-20T06:54:44.267Z,4.15
2022-08-20T06:57:10.577Z,3.70
2022-08-20T06:59:36.839Z,3.50
2022-08-20T07:02:03.568Z,3.70
2022-08-20T07:04:30.006Z,3.30
2022-08-20T07:06:57.559Z,3.30
2022-08-20T07:09:24.839Z,3.35
2022-08-20T07:11:51.102Z,3.47
2022-08-20T07:14:18.295Z,3.55
2022-08-20T07:16:46.178Z,3.38
2022-08-20T07:19:13.336Z,3.60
2022-08-20T07:21:39.772Z,3.30
2022-08-20T07:24:06.319Z,3.25
2022-08-20T07:26:34.381Z,3.15
2022-08-20T07:29:00.749Z,3.40
2022-08-20T07:31:45.828Z,3.45
2022-08-20T07:34:14.729Z,2.70
2022-08-20T07:36:41.208Z,2.88
2022-08-20T07:39:07.480Z,2.53
2022-08-20T07:41:35.829Z,2.63
2022-08-20T07:44:02.558Z,2.95
2022-08-20T07:46:31.298Z,2.25
2022-08-20T07:48:57.986Z,2.65
2022-08-20T07:51:24.268Z,2.28
2022-08-20T07:53:51.524Z,2.38
2022-08-20T07:56:22.427Z,2.50
2022-08-20T07:58:52.129Z,2.42
2022-08-20T08:01:22.921Z,2.58
2022-08-20T08:03:50.742Z,2.45
2022-08-20T08:06:29.183Z,2.65
2022-08-20T08:09:03.744Z,2.07
2022-08-20T08:11:31.275Z,2.08
2022-08-20T08:13:59.251Z,2.42
2022-08-20T08:16:25.528Z,2.15
2022-08-20T08:18:56.181Z,2.05
2022-08-20T08:21:23.577Z,1.80
2022-08-20T08:23:50.152Z,2.40
2022-08-20T08:26:19.185Z,2.00
2022-08-20T08:28:45.723Z,2.22
2022-08-20T08:31:12.290Z,1.83
2022-08-20T08:33:40.536Z,1.98
2022-08-20T08:36:09.652Z,1.77
2022-08-20T08:38:37.756Z,1.77
2022-08-20T08:41:22.619Z,1.90
2022-08-20T08:43:53.015Z,1.52
2022-08-20T08:48:48.888Z,2.30
2022-08-20T08:51:16.492Z,1.67
2022-08-20T08:53:48.497Z,1.90
2022-08-20T08:56:14.923Z,2.15
2022-08-20T08:58:41.861Z,1.65
2022-08-20T09:01:09.860Z,1.95
2022-08-20T09:03:55.633Z,1.70
2022-08-20T09:06:23.217Z,3.25
2022-08-20T09:08:51.003Z,1.90
2022-08-20T09:11:18.095Z,1.73
2022-08-20T09:13:44.781Z,2.50
2022-08-20T09:16:11.880Z,2.00
2022-08-20T09:18:38.304Z,1.60
2022-08-20T09:21:05.341Z,1.88
2022-08-20T09:23:31.772Z,2.10
2022-08-20T09:25:58.044Z,1.90
2022-08-20T09:28:24.555Z,1.85
2022-08-20T09:30:57.269Z,2.10
2022-08-20T09:33:24.443Z,2.88
2022-08-20T09:35:50.753Z,1.70
2022-08-20T09:38:17.012Z,1.80
2022-08-20T09:40:44.363Z,1.40
2022-08-20T09:43:10.696Z,1.80
2022-08-20T09:45:37.047Z,1.70
2022-08-20T09:48:03.538Z,1.50
2022-08-20T09:50:31.340Z,1.35
2022-08-20T09:52:59.376Z,2.15
2022-08-20T09:55:28.444Z,1.75
2022-08-20T09:57:54.749Z,1.23
2022-08-20T10:00:21.217Z,1.67
2022-08-20T10:02:47.745Z,1.40
2022-08-20T10:05:14.154Z,1.63
2022-08-20T10:07:40.868Z,1.35
2022-08-20T10:10:08.496Z,1.25
2022-08-20T10:12:34.845Z,1.38
2022-08-20T10:15:01.110Z,1.77
2022-08-20T10:17:27.367Z,1.10
2022-08-20T10:19:53.611Z,1.42
2022-08-20T10:22:19.891Z,1.42
2022-08-20T10:24:46.175Z,1.50
2022-08-20T10:27:12.461Z,1.50
2022-08-20T10:29:38.711Z,1.50
2022-08-20T10:32:12.364Z,1.63
2022-08-20T10:34:40.292Z,1.50
2022-08-20T10:37:06.769Z,1.42
2022-08-20T10:39:33.182Z,1.73
2022-08-20T10:41:59.552Z,1.40
2022-08-20T10:44:25.964Z,1.60
2022-08-20T10:46:52.230Z,1.80
2022-08-20T10:49:23.589Z,1.60
2022-08-20T10:51:49.871Z,1.77
2022-08-20T10:54:16.132Z,1.60
2022-08-20T10:56:42.419Z,1.40
2022-08-20T10:59:08.678Z,1.75
2022-08-20T11:01:36.728Z,1.60
2022-08-20T11:04:03.637Z,1.48
2022-08-20T11:06:29.946Z,1.70
2022-08-20T11:08:57.019Z,1.88
2022-08-20T11:11:23.565Z,1.90
2022-08-20T11:13:49.901Z,1.65
2022-08-20T11:16:16.172Z,1.80
2022-08-20T11:18:46.771Z,1.80
2022-08-20T11:21:14.046Z,1.75
2022-08-20T11:23:40.336Z,1.80
2022-08-20T11:26:06.621Z,1.80
2022-08-20T11:28:33.235Z,1.88
2022-08-20T11:31:00.436Z,1.80
2022-08-20T11:33:26.827Z,1.52
2022-08-20T11:35:53.129Z,2.10
2022-08-20T11:38:19.490Z,2.03
2022-08-20T11:40:46.912Z,1.55
2022-08-20T11:43:15.204Z,1.95
2022-08-20T11:45:42.946Z,1.73
2022-08-20T11:48:09.263Z,1.52
2022-08-20T11:50:35.725Z,1.58
2022-08-20T11:53:01.974Z,2.03
2022-08-20T11:55:30.652Z,1.80
2022-08-20T11:57:59.937Z,1.80
2022-08-20T12:00:32.271Z,1.90
2022-08-20T12:03:00.110Z,1.88
2022-08-20T12:05:27.314Z,1.52
2022-08-20T12:07:53.575Z,1.67
2022-08-20T12:10:19.875Z,1.50
2022-08-20T12:12:46.139Z,1.55
2022-08-20T12:15:12.413Z,1.70
2022-08-20T12:17:39.772Z,1.85
2022-08-20T12:20:10.422Z,1.67
2022-08-20T12:22:37.103Z,1.63
2022-08-20T12:25:03.957Z,1.48
2022-08-20T12:27:31.450Z,1.83
2022-08-20T12:29:59.070Z,1.63
2022-08-20T12:32:26.488Z,1.80
2022-08-20T12:34:53.255Z,1.50
2022-08-20T12:37:20.860Z,1.80
2022-08-20T12:39:48.817Z,1.60
2022-08-20T12:42:15.659Z,1.80
2022-08-20T12:44:43.060Z,2.13
2022-08-20T12:47:10.992Z,2.10
2022-08-20T12:49:37.725Z,1.95
2022-08-20T12:52:04.322Z,2.15
2022-08-20T12:54:30.876Z,1.88
2022-08-20T12:56:57.379Z,2.20
2022-08-20T12:59:26.050Z,2.50
2022-08-20T13:01:53.074Z,2.53
2022-08-20T13:04:19.444Z,2.20
2022-08-20T13:06:46.277Z,1.90
2022-08-20T13:09:13.268Z,2.30
2022-08-20T13:11:39.528Z,2.47
2022-08-20T13:14:05.860Z,2.03
2022-08-20T13:16:32.304Z,2.28
2022-08-20T13:18:58.551Z,2.22
2022-08-20T13:21:26.210Z,2.50
2022-08-20T13:23:52.561Z,2.38
2022-08-20T13:26:19.146Z,2.40
2022-08-20T13:28:45.415Z,2.08
2022-08-20T13:31:11.683Z,2.25
2022-08-20T13:33:37.952Z,3.00
2022-08-20T13:36:04.412Z,2.60
2022-08-20T13:38:31.241Z,2.30
2022-08-20T13:40:57.847Z,2.40
2022-08-20T13:43:24.191Z,2.35
2022-08-20T13:45:50.457Z,2.35
2022-08-20T13:48:16.746Z,2.50
2022-08-20T13:50:43.942Z,2.00
2022-08-20T13:53:13.703Z,2.40
2022-08-20T13:55:40.052Z,2.17
2022-08-20T13:58:07.463Z,2.45
2022-08-20T14:00:34.317Z,2.65
2022-08-20T14:03:01.309Z,2.05
2022-08-20T14:05:28.407Z,2.13
2022-08-20T14:07:54.930Z,2.55
2022-08-20T14:10:24.113Z,1.95
2022-08-20T14:12:50.924Z,1.80
2022-08-20T14:15:17.400Z,1.90
2022-08-20T14:17:49.355Z,2.13
2022-08-20T14:20:17.060Z,1.70
2022-08-20T14:22:44.207Z,2.15
2022-08-20T14:25:11.749Z,2.08
2022-08-20T14:27:38.058Z,2.00
2022-08-20T14:30:05.872Z,1.90
2022-08-20T14:32:32.186Z,1.88
2022-08-20T14:34:59.332Z,2.05
2022-08-20T14:37:30.050Z,1.90
2022-08-20T14:39:57.124Z,2.30
2022-08-20T14:42:24.045Z,2.22
2022-08-20T14:44:50.950Z,2.30
2022-08-20T14:47:21.574Z,2.55
2022-08-20T14:49:48.557Z,2.53
2022-08-20T14:52:15.731Z,2.45
2022-08-20T14:54:42.157Z,2.40
2022-08-20T14:57:13.009Z,2.10
2022-08-20T14:59:39.868Z,2.33
2022-08-20T15:02:07.262Z,2.28
2022-08-20T15:04:34.391Z,1.98
2022-08-20T15:07:10.851Z,2.50
2022-08-20T15:09:39.599Z,2.28
2022-08-20T15:12:06.002Z,2.45
2022-08-20T15:14:32.302Z,2.92
2022-08-20T15:16:59.844Z,2.72
2022-08-20T15:19:26.128Z,2.20
2022-08-20T15:21:52.453Z,2.30
2022-08-20T15:24:19.469Z,2.55
2022-08-20T15:26:46.455Z,2.22
2022-08-20T15:29:12.976Z,2.40
2022-08-20T15:31:49.431Z,2.20
2022-08-20T15:34:18.037Z,1.85
2022-08-20T15:36:44.700Z,2.20
2022-08-20T15:39:10.959Z,2.10
2022-08-20T15:41:37.229Z,2.20
2022-08-20T15:44:03.658Z,2.13
2022-08-20T15:46:33.607Z,1.90
2022-08-20T15:49:08.091Z,1.90
2022-08-20T15:51:37.944Z,1.70
2022-08-20T15:54:07.418Z,1.88
2022-08-20T15:56:36.555Z,1.77
2022-08-20T15:59:21.375Z,1.65
2022-08-20T16:01:55.559Z,1.83
2022-08-20T16:04:31.335Z,2.40
2022-08-20T16:07:00.643Z,2.13
2022-08-20T16:09:29.876Z,1.92
2022-08-20T16:11:56.113Z,1.77
2022-08-20T16:14:29.011Z,1.80
2022-08-20T16:17:03.223Z,1.90
2022-08-20T16:19:46.689Z,1.98
2022-08-20T16:22:14.416Z,1.80
2022-08-20T16:24:40.703Z,1.75
2022-08-20T16:27:06.992Z,2.15
2022-08-20T16:29:45.497Z,2.10
2022-08-20T16:32:11.748Z,3.13
2022-08-20T16:34:42.989Z,2.10
2022-08-20T16:37:25.199Z,2.25
2022-08-20T16:39:54.598Z,2.22
2022-08-20T16:42:23.180Z,2.30
2022-08-20T16:44:50.343Z,1.88
2022-08-20T16:47:18.429Z,2.35
2022-08-20T16:49:57.336Z,2.35
2022-08-20T16:52:23.937Z,2.60
2022-08-20T16:54:50.294Z,2.30
2022-08-20T16:57:19.691Z,2.38
2022-08-20T16:59:56.499Z,2.38
2022-08-20T17:02:23.073Z,2.13
2022-08-20T17:05:00.107Z,2.53
2022-08-20T17:07:30.991Z,2.42
2022-08-20T17:10:15.090Z,1.77
2022-08-20T17:12:41.439Z,2.25
2022-08-20T17:15:07.957Z,1.90
2022-08-20T17:17:36.575Z,2.88
2022-08-20T17:20:05.999Z,2.03
2022-08-20T17:22:39.373Z,1.90
2022-08-20T17:25:13.516Z,2.15
2022-08-20T17:27:39.927Z,1.90
2022-08-20T17:30:26.284Z,2.08
2022-08-20T17:32:57.726Z,2.00
2022-08-20T17:35:27.851Z,2.03
2022-08-20T17:37:55.035Z,2.00
2022-08-20T17:40:24.407Z,2.00
2022-08-20T17:42:52.648Z,2.80
2022-08-20T17:45:27.131Z,2.00
2022-08-20T17:47:54.884Z,1.90
2022-08-20T17:50:25.512Z,2.13
2022-08-20T17:52:55.059Z,1.92
2022-08-20T17:55:21.506Z,1.70
2022-08-20T17:57:49.183Z,1.83
2022-08-20T18:00:17.872Z,1.90
2022-08-20T18:02:44.163Z,1.92
2022-08-20T18:05:18.450Z,1.73
2022-08-20T18:07:53.959Z,1.83
2022-08-20T18:10:24.099Z,2.28
2022-08-20T18:12:57.906Z,2.17
2022-08-20T18:15:31.655Z,1.90
2022-08-20T18:18:03.978Z,2.03
2022-08-20T18:20:37.898Z,1.77
2022-08-20T18:23:11.520Z,1.90
2022-08-20T18:25:53.024Z,1.90
2022-08-20T18:28:22.046Z,1.50
2022-08-20T18:30:50.280Z,1.60
2022-08-20T18:33:24.887Z,1.70
2022-08-20T18:35:51.139Z,1.60
2022-08-20T18:38:23.415Z,1.52
2022-08-20T18:40:54.506Z,1.50
2022-08-20T18:43:30.310Z,1.85
2022-08-20T18:46:07.903Z,1.77
2022-08-20T18:48:34.179Z,1.75
2022-08-20T18:51:03.117Z,2.28
2022-08-20T18:53:33.893Z,1.80
2022-08-20T18:56:06.905Z,2.05
2022-08-20T18:58:47.536Z,2.25
2022-08-20T19:01:14.863Z,1.95
2022-08-20T19:03:46.008Z,1.95
2022-08-20T19:06:15.128Z,2.15
2022-08-20T19:08:41.469Z,2.70
2022-08-20T19:11:26.310Z,2.38
2022-08-20T19:13:52.528Z,1.92
2022-08-20T19:16:21.416Z,1.88
2022-08-20T19:18:56.823Z,2.20
2022-08-20T19:21:29.656Z,2.05
2022-08-20T19:23:56.934Z,1.83
2022-08-20T19:26:25.736Z,2.08
2022-08-20T19:29:12.644Z,2.38
2022-08-20T19:31:38.939Z,2.15
2022-08-20T19:34:19.925Z,1.88
2022-08-20T19:37:07.760Z,2.20
2022-08-20T19:39:46.571Z,2.15
2022-08-20T19:42:18.908Z,2.53
2022-08-20T19:44:48.116Z,2.33
2022-08-20T19:47:20.110Z,2.47
2022-08-20T19:49:55.438Z,2.53
2022-08-20T19:52:26.853Z,2.90
2022-08-20T19:54:54.238Z,2.40
2022-08-20T19:57:21.684Z,2.45
2022-08-20T19:59:52.178Z,2.42
2022-08-20T20:04:55.310Z,2.17
2022-08-20T20:07:26.752Z,2.60
2022-08-20T20:09:54.555Z,2.63
2022-08-20T20:12:22.973Z,2.83
2022-08-20T20:14:50.753Z,2.70
2022-08-20T20:17:22.938Z,2.75
2022-08-20T20:19:56.343Z,2.72
2022-08-20T20:22:24.689Z,3.30
2022-08-20T20:25:17.484Z,2.92
2022-08-20T20:27:52.623Z,3.10
2022-08-20T20:30:27.469Z,2.70
2022-08-20T20:32:53.954Z,2.95
2022-08-20T20:35:31.382Z,3.05
2022-08-20T20:37:59.314Z,2.83
2022-08-20T20:40:27.575Z,3.03
2022-08-20T20:43:13.695Z,3.20
2022-08-20T20:45:41.809Z,3.00
2022-08-20T20:48:15.933Z,2.78
2022-08-20T20:50:42.386Z,3.05
2022-08-20T20:53:08.728Z,2.95
2022-08-20T20:55:35.898Z,2.80
2022-08-20T20:58:03.244Z,3.50
2022-08-20T21:00:31.384Z,3.05
2022-08-20T21:02:57.722Z,3.08
2022-08-20T21:05:27.058Z,3.13
2022-08-20T21:07:54.891Z,3.03
2022-08-20T21:10:22.952Z,2.65
2022-08-20T21:12:52.974Z,2.60
2022-08-20T21:15:20.149Z,2.80
2022-08-20T21:17:46.546Z,2.63
2022-08-20T21:20:12.917Z,2.80
2022-08-20T21:22:39.264Z,2.75
2022-08-20T21:25:06.162Z,2.75
2022-08-20T21:27:32.711Z,2.83
2022-08-20T21:29:59.008Z,2.50
2022-08-20T21:32:25.305Z,3.30
2022-08-20T21:34:51.718Z,2.88
2022-08-20T21:37:18.098Z,2.95
2022-08-20T21:39:44.567Z,2.95
2022-08-20T21:42:18.543Z,2.83
2022-08-20T21:44:55.364Z,2.70
2022-08-20T21:47:21.679Z,2.58
2022-08-20T21:49:47.948Z,2.78
2022-08-20T21:52:14.211Z,2.60
2022-08-20T21:54:40.492Z,2.60
2022-08-20T21:57:26.413Z,2.50
2022-08-20T21:59:52.777Z,2.78
2022-08-20T22:02:19.252Z,2.72
2022-08-20T22:04:45.763Z,3.80
2022-08-20T22:07:12.188Z,4.50
2022-08-20T22:09:38.832Z,5.70
2022-08-20T22:12:14.194Z,5.30
2022-08-20T22:14:40.748Z,5.07
2022-08-20T22:17:07.017Z,5.20
2022-08-20T22:19:33.268Z,4.82
2022-08-20T22:21:59.938Z,4.78
2022-08-20T22:24:27.367Z,4.00
2022-08-20T22:26:53.699Z,4.00
2022-08-20T22:29:20.089Z,3.60
2022-08-20T22:31:46.507Z,3.90
2022-08-20T22:34:13.794Z,3.92
2022-08-20T22:36:40.326Z,3.70
2022-08-20T22:39:07.129Z,3.95
2022-08-20T22:41:33.547Z,3.90
2022-08-20T22:43:59.814Z,3.85
2022-08-20T22:46:28.247Z,3.60
2022-08-20T22:48:55.244Z,3.53
2022-08-20T22:51:30.219Z,3.63
2022-08-20T22:53:56.797Z,3.45
2022-08-20T22:56:23.067Z,3.83
2022-08-20T22:58:50.315Z,4.03
2022-08-20T23:01:17.213Z,3.22
2022-08-20T23:03:43.510Z,2.95
2022-08-20T23:06:10.365Z,3.13
2022-08-20T23:08:37.822Z,3.55
2022-08-20T23:11:04.083Z,3.72
2022-08-20T23:13:30.392Z,3.13
2022-08-20T23:15:57.206Z,3.55
2022-08-20T23:18:23.775Z,3.13
2022-08-20T23:20:52.011Z,3.10
2022-08-20T23:23:18.293Z,3.00
2022-08-20T23:25:44.715Z,3.40
2022-08-20T23:28:11.173Z,3.28
2022-08-20T23:30:37.428Z,3.25
2022-08-20T23:33:03.744Z,3.10
2022-08-20T23:35:32.091Z,3.13
2022-08-20T23:37:59.520Z,3.28
2022-08-20T23:40:28.139Z,2.80
2022-08-20T23:42:55.198Z,2.75
2022-08-20T23:45:21.741Z,3.35
2022-08-20T23:47:48.490Z,3.67
2022-08-20T23:50:17.155Z,3.70
2022-08-20T23:52:43.614Z,3.60
2022-08-20T23:55:09.925Z,3.58
2022-08-20T23:57:37.607Z,3.10
